x

9444090 - Port Angeles, Wa (ptaw1) Weather Station

1:36 - Mon 23rd Jan 2017 All times are PST. -8 hours from GMT.

  • Wind
    6mph, 9mph gusts
  • Sea Temp 46°f
  • Air Temp 38°f
  • Sea Pressure 1003.2mb
  • 9444090 - Port Angeles, Wa
  • 9444090 - Port Angeles, Wa

More Historic Weather Station data

Upgrade to MSW Pro to gain access to the past 30 days of data for over 8000 Wavebouys and Weather Stations around the globe.

Join Pro

Comparision Forecast

View Surf forecast
   
lun. 01/23 1:36 6 9 mph 1003.2mb 46f 38f
1:30 6 9 mph 1003.1mb 46f 38f
1:24 7 8 mph 1003.1mb 46f 39f
1:18 6 7 mph 1003mb 46f 39f
1:12 5 11 mph 1002.9mb 46f 39f
1:06 6 9 mph 1002.8mb 46f 40f
1:00 6 8 mph 1002.8mb 46f 40f
12:36 6 9 mph 1002.7mb 46f 37f
12:30 2 6 mph 1002.6mb 46f 38f
12:24 5 8 mph 1002.6mb 46f 38f
12:18 5 9 mph 1002.6mb 46f 38f
12:12 6 10 mph 1002.6mb 46f 39f
12:06 7 10 mph 1002.5mb 46f 39f
12:00 6 10 mph 1002.5mb 46f 38f
dim. 01/22 11:36 2 5 mph 1002.4mb 46f 37f
11:30 2 7 mph 1002.2mb 46f 38f
11:24 5 6 mph 1002.2mb 46f 38f
11:18 3 7 mph 1002.2mb 46f 37f
11:12 2 3 mph 1002.1mb 46f 37f
11:06 3 6 mph 1002.1mb 46f 37f
11:00 6 7 mph 1002mb 46f 37f
10:36 8 10 mph 1001.9mb 46f 38f
10:30 9 11 mph 1001.9mb 46f 37f
10:24 8 10 mph 1002mb 46f 37f
10:18 8 11 mph 1001.9mb 46f 37f
10:12 8 10 mph 1001.8mb 46f 38f
10:06 8 9 mph 1001.7mb 46f 38f
10:00 7 9 mph 1001.6mb 46f 38f
9:36 7 10 mph 1001.2mb 46f 38f
9:30 5 9 mph 1001.2mb 46f 39f
9:24 7 10 mph 1001.2mb 46f 38f
9:18 5 7 mph 1001.2mb 46f 39f
9:12 8 9 mph 1001.1mb 46f 38f
9:06 6 9 mph 1001.1mb 46f 38f
9:00 3 7 mph 1001mb 46f 39f
8:36 9 11 mph 1001mb 46f 38f
8:30 7 10 mph 1000.9mb 46f 38f
8:24 8 10 mph 1000.9mb 46f 38f
8:18 8 9 mph 1000.7mb 46f 38f
8:12 9 10 mph 1000.8mb 46f 39f
8:06 7 9 mph 1000.7mb 46f 39f
8:00 7 9 mph 1000.7mb 46f 39f
7:36 8 9 mph 1000.6mb 46f 40f
7:30 5 7 mph 1000.5mb 46f 39f
7:24 7 9 mph 1000.6mb 46f 40f
7:18 7 9 mph 1000.6mb 46f 39f
7:12 6 8 mph 1000.5mb 46f 40f
7:06 5 9 mph 1000.4mb 46f 39f
7:00 7 8 mph 1000.4mb 46f 39f
6:36 2 3 mph 1000.3mb 46f 40f
6:30 2 3 mph 1000.3mb 46f 40f
6:24 3 6 mph 1000.3mb 46f 40f
6:18 6 7 mph 1000.3mb 46f 40f
6:12 7
mph
1000.2mb 46f 41f
6:06 6 7 mph 1000.1mb 46f 41f
6:00 5
mph
1000.1mb 46f 40f
5:36 5 6 mph 1000.2mb 46f 42f
5:30 3 5 mph 1000.1mb 46f 42f
5:24 3 5 mph 1000.1mb 46f 42f
5:18 3 6 mph 1000.1mb 46f 42f
5:12 3 5 mph 1000.1mb 46f 42f
5:06 2 5 mph 1000.1mb 46f 44f
5:00 2
mph
1000mb 46f 44f
4:36 1 2 mph 1000.2mb 46f 44f
4:30 1 3 mph 1000.1mb 46f 44f
4:24 2 5 mph 1000.1mb 46f 44f
4:18 3 5 mph 1000mb 46f 45f
4:12 3 5 mph 1000.1mb 46f 45f
4:06 5 6 mph 1000mb 46f 45f
4:00 3 6 mph 1000mb 46f 45f
3:36 2 3 mph 999.8mb 46f 46f
3:30  -  1 mph 999.7mb 46f 45f
3:24  -  1 mph 999.7mb 46f 46f
3:18  -  2 mph 999.7mb 46f 46f
3:12 2 3 mph 999.5mb 46f 46f
3:06 3 6 mph 999.5mb 46f 46f
3:00 6 8 mph 999.4mb 46f 45f
2:36 5 6 mph 999.3mb 46f 45f
2:30 5 6 mph 999.2mb 46f 45f
2:24 3 6 mph 999.1mb 46f 45f
2:18 5 7 mph 999.1mb 46f 45f
2:12 6 7 mph 999mb 46f 45f
2:06 6 7 mph 999mb 46f 46f
2:00 7 8 mph 998.9mb 46f 46f
1:36 6 7 mph 998.7mb 46f 46f
1:30 7 8 mph 998.5mb 46f 46f
1:24 6 7 mph 998.5mb 46f 46f
1:18 5
mph
998.6mb 46f 47f
1:12 2
mph
998.7mb 46f 47f
1:06  -  1 mph 998.5mb 46f 47f
1:00 1 5 mph 998.5mb 46f 47f
12:36 3 6 mph 998.1mb 46f 47f
12:30 5 7 mph 998mb 46f 47f
12:24 5 7 mph 997.8mb 46f 46f
12:18 5 6 mph 997.8mb 46f 47f
12:12 5 7 mph 997.8mb 46f 47f
12:06 5 6 mph 998mb 46f 47f
12:00 5 6 mph 998mb 46f 47f
11:36 5 9 mph 997.8mb 46f 46f
11:30 5 8 mph 997.7mb 46f 46f
11:24 5 7 mph 997.8mb 46f 46f
11:18 7 9 mph 997.5mb 46f 46f
11:12 3 8 mph 997.6mb 46f 46f
11:06 3 8 mph 997.4mb 46f 46f
11:00 7 10 mph 997.3mb 46f 46f
10:36  -  mph 997mb 46f 44f
10:24  -  mph 996.7mb 46f 44f
10:18  -  mph 997mb 46f 44f
10:12  -  mph 996.7mb 46f 44f
10:06  -  mph 996.9mb 46f 44f
10:00  -  mph 996.5mb 46f 44f
9:36 3 7 mph 996mb 46f 42f
9:30 2 7 mph 996mb 46f 42f
9:24 2 6 mph 995.9mb 46f 42f
9:18 2 8 mph 995.7mb 46f 42f
9:12 5 8 mph 995.7mb 46f 41f
9:06 7 8 mph 995.6mb 46f 41f
9:00 7 8 mph 995.5mb 46f 41f
8:36 2 5 mph 995.3mb 46f 42f
8:30 3 6 mph 995.3mb 46f 42f
8:24 3 9 mph 995.3mb 46f 45f
8:18 7 11 mph 995.3mb 46f 45f
8:12 8 13 mph 995.2mb 46f 45f
8:06 10 15 mph 995.2mb 46f 45f
8:00 10 14 mph 995.1mb 46f 45f
7:36 13 16 mph 995mb 46f 46f
7:30 10 16 mph 995mb 46f 45f
7:24 15 24 mph 995mb 46f 46f
7:18 15 25 mph 995mb 46f 46f
7:12 16 22 mph 995mb 46f 46f
7:06 18 22 mph 995mb 46f 46f
7:00 15 21 mph 995.1mb 46f 45f
6:36 15 22 mph 995.1mb 46f 45f
6:30 16 21 mph 995.1mb 46f 45f
6:24 6 13 mph 995.4mb 46f 40f
6:18 3 7 mph 995.3mb 46f 38f
6:12 5 7 mph 995.4mb 46f 37f
6:06 2 7 mph 995.5mb 46f 36f
6:00 6 8 mph 995.3mb 46f 35f
5:36 3 6 mph 995.8mb 46f 35f
5:30 2 6 mph 995.9mb 46f 35f
5:24 5 6 mph 996mb 46f 35f
5:18 5 6 mph 996mb 46f 35f
5:12 6
mph
996.1mb 46f 35f
5:06 3
mph
996.2mb 46f 35f
5:00  -  3 mph 996.3mb 46f 36f
4:36 6 7 mph 996.6mb 46f 36f
4:30 5 9 mph 996.7mb 46f 36f
4:24 6 8 mph 996.8mb 46f 36f
4:18 3 5 mph 997.1mb 46f 36f
4:12 3 5 mph 997.3mb 46f 36f
4:06 3 6 mph 997.3mb 46f 36f
4:00 3 6 mph 997.4mb 46f 36f
3:36 6 8 mph 998mb 46f 36f
3:30 6 9 mph 998.1mb 46f 36f
3:24 5 7 mph 998.5mb 46f 36f
3:18 7 8 mph 998.8mb 46f 36f
3:12 5 7 mph 998.9mb 46f 36f
3:06 6 7 mph 999mb 46f 36f
3:00 5 6 mph 999.1mb 46f 36f
2:36 7
mph
999.2mb 46f 36f
2:30 6
mph
999.1mb 46f 36f
2:24 3 6 mph 999.2mb 46f 36f
2:18 2 5 mph 999.3mb 46f 37f
2:12 5 6 mph 999.5mb 46f 38f
2:06 6 7 mph 999.5mb 46f 37f
2:00 7 8 mph 999.5mb 46f 37f
1:54  -  7 mph 999.6mb 46f 37f
1:48 6 7 mph 999.7mb 46f 37f
1:36 8 10 mph 999.9mb 46f 36f
1:30 8 10 mph 999.8mb 46f 36f
1:24 8 9 mph 999.7mb 46f 36f
1:18 8 9 mph 999.8mb 46f 36f
1:12 6 8 mph 1000mb 46f 36f
1:06 7 8 mph 1000.1mb 46f 36f
1:00 7 8 mph 1000.2mb 46f 36f
12:54 6 8 mph 1000.2mb 46f 36f
12:48 6 8 mph 1000.4mb 46f 36f
12:36 5 7 mph 1000.5mb 46f 36f
12:30 6 9 mph 1000.6mb 46f 36f
12:24 7 9 mph 1000.5mb 46f 36f
12:18 3 6 mph 1000.5mb 46f 36f
12:12 5 7 mph 1000.5mb 46f 36f
12:06 5 7 mph 1000.5mb 46f 37f
12:00 6 8 mph 1000.6mb 46f 37f
sam. 01/21 11:54 5 7 mph 1000.7mb 46f 36f
11:48 6 8 mph 1000.7mb 46f 37f
11:36 3 7 mph 1000.6mb 46f 36f
11:30 3 6 mph 1000.7mb 46f 36f
11:24 3 6 mph 1000.7mb 46f 37f
11:18 5 7 mph 1000.8mb 46f 37f
11:12 3 6 mph 1000.8mb 46f 37f
11:06 5 6 mph 1000.6mb 46f 37f
11:00 3 6 mph 1000.4mb 46f 37f
10:54 3 5 mph 1000.2mb 46f 39f
10:48 3 5 mph 1000.3mb 46f 38f
10:36 6 7 mph 1000.1mb 46f 38f
10:30 6 8 mph 999.9mb 46f 39f
10:24 7 8 mph 999.9mb 46f 39f
10:18 8 10 mph 999.9mb 46f 39f
10:12 8 10 mph 999.9mb 46f 38f
10:06 8 9 mph 1000mb 46f 39f
10:00 7 9 mph 1000mb 46f 40f
9:54 7 8 mph 1000mb 46f 39f
9:48 7 8 mph 999.9mb 46f 39f
9:36 7 8 mph 999.9mb 46f 39f
9:30 7 8 mph 999.9mb 46f 39f
9:24 7 8 mph 1000mb 46f 40f
9:18 7 8 mph 999.9mb 46f 40f
9:12 8 9 mph 999.9mb 46f 40f
9:06 7 9 mph 999.8mb 46f 40f
9:00 7 8 mph 999.7mb 46f 40f
8:54 7 8 mph 999.7mb 46f 40f
8:48 7 9 mph 999.6mb 46f 41f
8:36 7 8 mph 999.6mb 46f 40f
8:30 6 7 mph 999.7mb 46f 40f
8:24 5 6 mph 999.7mb 46f 40f
8:18 3
mph
999.7mb 46f 41f
8:12  -  2 mph 999.8mb 46f 41f
8:06 2 6 mph 999.7mb 46f 41f
8:00 5 6 mph 999.6mb 46f 41f
7:54 3 8 mph 999.4mb 46f 41f
7:48 5 7 mph 999.2mb 46f 41f
7:36 3
mph
999.2mb 46f 43f
7:30 3 5 mph 999.2mb 46f 42f
7:24 2 3 mph 999mb 46f 42f
7:18  -  3 mph 998.9mb 46f 42f
7:12 3 5 mph 999mb 46f 42f
7:06 3 5 mph 998.9mb 46f 43f
7:00 2 6 mph 998.9mb 46f 43f
6:54 3 6 mph 998.8mb 46f 43f
6:48 5 7 mph 998.7mb 46f 43f
6:36 7 8 mph 998.5mb 46f 42f
6:30 7 8 mph 998.4mb 46f 43f
6:24 5 6 mph 998.3mb 46f 43f
6:18 3 7 mph 998.3mb 46f 43f
6:12 6 8 mph 998.1mb 46f 43f
6:06 7 9 mph 998mb 46f 43f
6:00 7 9 mph 998mb 46f 43f
5:54 7 8 mph 997.9mb 46f 43f
5:48 5
mph
997.8mb 46f 43f
5:36 5 6 mph 997.7mb 46f 44f
5:30 3 5 mph 997.7mb 46f 44f
5:24 5 6 mph 997.6mb 46f 44f
5:18 5
mph
997.6mb 46f 45f
5:12 3 5 mph 997.5mb 46f 45f
5:06 2 3 mph 997.5mb 46f 45f
5:00 3
mph
997.4mb 46f 45f
4:54 3 5 mph 997.3mb 46f 46f
4:48 2 3 mph 997.1mb 46f 46f
4:36 2 3 mph 997mb 46f 47f
4:30 3 5 mph 997mb 46f 46f
4:24 3 6 mph 996.9mb 46f 47f
4:18 6 7 mph 996.8mb 46f 47f
4:12 6
mph
996.7mb 46f 47f
4:06 6 7 mph 996.6mb 46f 47f
4:00 6
mph
996.6mb 46f 47f
3:54 3 5 mph 996.5mb 46f 47f
3:48 3 5 mph 996.5mb 46f 47f
3:36 5 6 mph 996.2mb 46f 47f
3:30 6
mph
996.2mb 46f 46f
3:24 5 7 mph 996.1mb 46f 46f
3:18 6
mph
996mb 46f 47f
3:12 3 6 mph 996mb 46f 47f
3:06 5 6 mph 995.9mb 46f 47f
3:00 5 6 mph 995.9mb 46f 47f
2:54 6 8 mph 995.8mb 46f 46f
2:48 6 9 mph 995.7mb 46f 46f
2:36 6 8 mph 995.6mb 46f 46f
2:30 6 8 mph 995.5mb 46f 46f
2:24 7 9 mph 995.3mb 46f 46f
2:18 7 8 mph 995.2mb 46f 46f
2:12 7 9 mph 995.1mb 46f 46f
2:06 7 9 mph 995mb 46f 46f
2:00 8 11 mph 995mb 46f 46f
1:54 9 10 mph 994.9mb 46f 46f
1:48 9 11 mph 994.8mb 46f 46f
1:36 7 10 mph 994.7mb 46f 46f
1:30 9 11 mph 994.7mb 46f 47f
1:24 9 11 mph 994.7mb 46f 46f
1:18 8 10 mph 994.6mb 46f 46f
1:12 5 9 mph 994.6mb 46f 46f
1:06 7 9 mph 994.5mb 46f 46f
1:00 7 9 mph 994.5mb 46f 46f
12:54 6 8 mph 994.4mb 46f 46f
12:48 7 9 mph 994.4mb 46f 46f
12:36 3 6 mph 994.4mb 46f 46f
12:30 2 5 mph 994.3mb 46f 46f
12:24 5 6 mph 994.3mb 46f 46f
12:18 3 7 mph 994.3mb 46f 46f
12:12 3 5 mph 994.3mb 46f 46f
12:06 1 3 mph 994.3mb 46f 46f
12:00 2 3 mph 994.2mb 46f 46f
11:54 2 3 mph 994.2mb 46f 46f
11:48 1 3 mph 994.2mb 46f 46f
11:36  -  1 mph 994.1mb 46f 46f
11:30  -  3 mph 994.1mb 46f 46f
11:24  -  2 mph 994mb 46f 45f
11:18 3 6 mph 994mb 46f 45f
11:12 1 6 mph 993.9mb 46f 45f
11:06 1 3 mph 993.8mb 46f 44f
11:00 1 2 mph 993.9mb 46f 44f
10:54 3 6 mph 993.8mb 46f 44f
10:48 5 6 mph 993.8mb 46f 43f
10:36 6 7 mph 993.7mb 46f 43f
10:30 6 7 mph 993.7mb 46f 43f
10:24 6 7 mph 993.5mb 46f 43f
10:18 6 7 mph 993.4mb 46f 43f
10:12 6 9 mph 993.3mb 46f 44f
10:06 7 9 mph 993.2mb 46f 44f
10:00 6 8 mph 993.1mb 46f 44f
9:54 6 7 mph 993.1mb 46f 44f
9:48 6
mph
993mb 46f 43f
9:36 6 7 mph 993mb 46f 43f
9:30 5 8 mph 992.9mb 46f 43f
9:24 6 8 mph 992.8mb 46f 43f
9:18 6 8 mph 992.7mb 46f 43f
9:12 5 7 mph 992.6mb 46f 43f
9:06 6 7 mph 992.5mb 46f 43f
9:00 6 8 mph 992.3mb 46f 43f
8:54 6 7 mph 992.3mb 46f 44f
8:48 6 7 mph 992.2mb 46f 44f
8:36 7 9 mph 992mb 46f 42f
8:30 7 8 mph 992mb 46f 41f
8:24 7 8 mph 992mb 46f 41f
8:18 7 8 mph 992mb 46f 40f
8:12 7 8 mph 991.9mb 46f 39f
8:06 6 7 mph 991.7mb 46f 39f
8:00 7 8 mph 991.6mb 46f 40f
7:54 7 9 mph 991.5mb 46f 39f
7:48 7 9 mph 991.4mb 46f 39f
7:36 7 8 mph 991.3mb 46f 39f
7:30 7 9 mph 991.2mb 46f 39f
7:24 6 8 mph 991.2mb 46f 39f
7:18 7 9 mph 991.2mb 46f 39f
7:12 5 7 mph 991.1mb 46f 39f
7:06 3 6 mph 991mb 46f 39f
7:00 5 6 mph 990.9mb 46f 39f
6:54 3 5 mph 990.9mb 46f 39f
6:48 1 6 mph 990.8mb 46f 39f
6:36 5 6 mph 990.7mb 46f 38f
6:30 6 9 mph 990.7mb 46f 39f
6:24 6 8 mph 990.6mb 46f 39f
6:18 5 8 mph 990.6mb 46f 39f
6:12 6 8 mph 990.6mb 46f 39f
6:06 6 7 mph 990.5mb 46f 39f
6:00 6 7 mph 990.5mb 46f 38f
5:54 6 7 mph 990.4mb 46f 39f
5:48 6 7 mph 990.4mb 46f 39f
5:36 7 8 mph 990.2mb 46f 39f
5:30 6 7 mph 990.1mb 46f 39f
5:24 6 8 mph 990.1mb 46f 39f
5:18 6 7 mph 990.1mb 46f 39f
5:12 6 8 mph 990.1mb 46f 39f
5:06 6 7 mph 990mb 46f 39f
5:00 5 6 mph 989.9mb 46f 39f
4:54 2 3 mph 989.9mb 46f 39f
4:48 2 5 mph 989.9mb 46f 39f
4:36 5 6 mph 989.9mb 46f 39f
4:30 3 5 mph 989.8mb 46f 39f
4:24 3 5 mph 989.7mb 46f 40f
4:18 3 5 mph 989.6mb 46f 40f
4:12 5 6 mph 989.7mb 46f 40f
4:06 5 6 mph 989.6mb 46f 40f
4:00 6 7 mph 989.7mb 46f 40f
3:54 6 8 mph 989.7mb 46f 40f
3:48 6 7 mph 989.6mb 46f 40f
3:36 6 7 mph 989.6mb 46f 41f
3:30 5 6 mph 989.5mb 46f 42f
3:24 6 7 mph 989.5mb 46f 41f
3:18 5 6 mph 989.5mb 46f 42f
3:12 3 6 mph 989.5mb 46f 42f
3:06 5 9 mph 989.4mb 46f 43f
3:00 6 8 mph 989.4mb 46f 42f
2:54 7 10 mph 989.3mb 46f 42f
2:48 10 13 mph 989.3mb 46f 41f
2:36 7 9 mph 989.3mb 46f 43f
2:30 8 9 mph 989.2mb 46f 42f
2:24 7 8 mph 989.2mb 46f 42f
2:18 9 11 mph 989.2mb 46f 42f
2:12 8 9 mph 989.1mb 46f 43f
2:06 6 10 mph 989mb 46f 44f
2:00 7 14 mph 989mb 46f 44f
1:54 8 11 mph 988.9mb 46f 44f
1:48 8 10 mph 988.7mb 46f 44f
1:36 7 11 mph 988.6mb 46f 45f
1:30 9 15 mph 988.5mb 46f 45f
1:24 9 13 mph 988.4mb 46f 45f
1:18 8 11 mph 988.3mb 46f 45f
1:12 7 11 mph 988.3mb 46f 45f
1:06 7 10 mph 988.2mb 46f 44f
1:00 6 11 mph 988.1mb 46f 45f
12:54 7 14 mph 988.1mb 46f 45f
12:48 7 11 mph 988.1mb 46f 45f
12:36 9 14 mph 987.9mb 46f 44f
12:30 8 13 mph 987.9mb 46f 44f
12:24 8 11 mph 987.9mb 46f 42f
12:18 5 6 mph 987.9mb 46f 42f
12:12 6 7 mph 987.8mb 46f 42f
12:06 6 8 mph 987.8mb 46f 42f
12:00 6 8 mph 987.8mb 46f 41f
ven. 01/20 11:54 6 9 mph 987.8mb 46f 42f
11:48 7 9 mph 987.7mb 46f 41f
11:36 6 8 mph 987.7mb 46f 41f
11:30 7 9 mph 987.7mb 46f 41f
11:24 7 8 mph 987.6mb 46f 42f
11:18 7 8 mph 987.6mb 46f 41f
11:12 7 8 mph 987.5mb 46f 42f
11:06 7 9 mph 987.5mb 46f 41f
11:00 6 9 mph 987.4mb 46f 41f
10:54 7 9 mph 987.4mb 46f 41f
10:48 8 10 mph 987.4mb 46f 41f
10:36 6 7 mph 987.3mb 46f 41f
10:30 6 8 mph 987.3mb 46f 41f
10:24 7 8 mph 987.3mb 46f 41f
10:18 5 6 mph 987.2mb 46f 41f
10:12 3 6 mph 987.2mb 46f 41f
10:06 6 7 mph 987.2mb 46f 41f
10:00 6 7 mph 987.2mb 46f 41f
9:54 5 6 mph 987.1mb 46f 41f
9:48 5
mph
987mb 46f 41f
9:36 5 7 mph 986.9mb 46f 41f
9:30 7 8 mph 986.9mb 46f 41f
9:24 7 8 mph 986.9mb 46f 41f
9:18 6 8 mph 986.9mb 46f 41f
9:12 7 8 mph 986.8mb 46f 41f
9:06 7 8 mph 986.8mb 46f 41f
9:00 6 9 mph 986.8mb 46f 41f
8:54 7 9 mph 986.8mb 46f 41f
8:48 7 10 mph 986.7mb 46f 42f
8:36 6 8 mph 986.7mb 46f 41f
8:30 6 8 mph 986.7mb 46f 41f
8:24 6 8 mph 986.7mb 46f 42f
8:18 6 8 mph 986.7mb 46f 42f
8:12 6 9 mph 986.6mb 46f 42f
8:06 7 8 mph 986.6mb 46f 42f
8:00 7 8 mph 986.6mb 46f 42f
7:54 6 8 mph 986.6mb 46f 42f
7:48 7 8 mph 986.6mb 46f 42f
7:36 5 6 mph 986.5mb 46f 42f
7:30 5 7 mph 986.5mb 46f 42f
7:24 7 8 mph 986.5mb 46f 42f
7:18 7 8 mph 986.4mb 46f 42f
7:12 6 7 mph 986.4mb 46f 42f
7:06 6 9 mph 986.3mb 46f 42f
7:00 7 8 mph 986.3mb 46f 42f
6:54 7 8 mph 986.2mb 46f 42f
6:48 7 8 mph 986.2mb 46f 42f
6:36 6 7 mph 986.1mb 46f 42f
6:30 6 7 mph 986.1mb 46f 43f
6:24 6 7 mph 986.1mb 46f 43f
6:18 6 7 mph 986.1mb 46f 43f
6:12 6 7 mph 986mb 46f 43f
6:06 6 7 mph 986mb 46f 43f
6:00 5 6 mph 985.9mb 46f 43f
5:54 5 6 mph 985.9mb 46f 43f
5:48 5 7 mph 985.9mb 46f 43f
5:36 6
mph
985.8mb 46f 44f
5:30 6 7 mph 985.8mb 46f 44f
5:24 6 7 mph 985.7mb 46f 44f
5:18 6 7 mph 985.7mb 46f 44f
5:12 6
mph
985.7mb 46f 44f
5:06 5 6 mph 985.6mb 46f 44f
5:00 5 6 mph 985.6mb 46f 45f
4:54 3 5 mph 985.6mb 46f 45f
4:48 5 6 mph 985.5mb 46f 45f
4:36 3 5 mph 985.5mb 46f 46f
4:30 5
mph
985.5mb 46f 46f
4:24 3 5 mph 985.5mb 46f 46f
4:18 2 3 mph 985.6mb 46f 47f
4:12 2 3 mph 985.5mb 46f 46f
4:06 3
mph
985.5mb 46f 46f
4:00 3
mph
985.5mb 46f 46f
3:54 2 3 mph 985.5mb 46f 46f
3:48 2
mph
985.5mb 46f 47f
3:36 2 3 mph 985.5mb 46f 47f
3:30 3
mph
985.5mb 46f 47f
3:24 2 3 mph 985.5mb 46f 46f
3:18 3
mph
985.5mb 46f 47f
3:12 2 3 mph 985.5mb 46f 47f
3:06 2
mph
985.5mb 46f 46f
3:00 1 2 mph 985.6mb 46f 46f
2:54 1
mph
985.6mb 46f 46f
2:48  -  2 mph 985.6mb 46f 46f
2:36 1 5 mph 985.6mb 46f 46f
2:30 2 6 mph 985.6mb 46f 46f
2:24 3 6 mph 985.6mb 46f 46f
2:18 3 6 mph 985.6mb 46f 46f
2:12 5 7 mph 985.6mb 46f 46f
2:06 3 5 mph 985.6mb 46f 46f
2:00 3 6 mph 985.6mb 46f 46f
1:54 5 6 mph 985.6mb 46f 46f
1:48 5 7 mph 985.6mb 46f 46f
1:36 3 6 mph 985.7mb 46f 46f
1:30 2 5 mph 985.7mb 46f 46f
1:24 3 5 mph 985.7mb 46f 46f
1:18 3 6 mph 985.7mb 46f 45f
1:12 5 7 mph 985.7mb 46f 46f
1:06 2 6 mph 985.8mb 46f 46f
1:00 3
mph
985.8mb 46f 46f
12:54 3 5 mph 985.9mb 46f 45f
12:48 5 6 mph 986mb 46f 45f
12:36 5 6 mph 986.1mb 46f 45f
12:30 3 5 mph 986.1mb 46f 45f
12:24 3 6 mph 986.3mb 46f 45f
12:18 5 6 mph 986.3mb 46f 46f
12:12 1 2 mph 986.3mb 46f 45f
12:06 1 2 mph 986.5mb 46f 45f
12:00  -  1 mph 986.5mb 46f 44f
11:54 1 3 mph 986.6mb 46f 44f
11:48 3 6 mph 986.6mb 46f 44f
11:36 5 6 mph 986.8mb 46f 43f
11:30 5 7 mph 986.8mb 46f 43f
11:24 6 7 mph 986.9mb 46f 43f
11:18 5 9 mph 987mb 46f 42f
11:12 7 9 mph 986.9mb 46f 42f
11:06 3 5 mph 987mb 46f 42f
11:00 3 5 mph 987.1mb 46f 42f
10:54 3
mph
987.1mb 46f 41f
10:48 3 5 mph 987.2mb 46f 41f
10:36 5
mph
987.2mb 46f 41f
10:30 5 6 mph 987.2mb 46f 41f
10:24 5 6 mph 987.2mb 46f 40f
10:18 3 5 mph 987.3mb 46f 40f
10:12 3 5 mph 987.3mb 46f 39f
10:06 3 5 mph 987.3mb 46f 39f
10:00 3 5 mph 987.4mb 46f 39f
9:54 3 6 mph 987.4mb 46f 39f
9:48 5 6 mph 987.5mb 46f 39f
9:36 5 7 mph 987.5mb 46f 38f
9:30 6 8 mph 987.6mb 46f 38f
9:24 5 6 mph 987.6mb 46f 38f
9:18 7 9 mph 987.6mb 46f 38f
9:12 7 8 mph 987.6mb 46f 38f
9:06 7 9 mph 987.7mb 46f 38f
9:00 3 6 mph 987.7mb 46f 38f
8:54 3 5 mph 987.7mb 46f 37f
8:48 3 5 mph 987.7mb 46f 38f
8:36 3 5 mph 987.8mb 46f 38f
8:30 3 5 mph 987.9mb 46f 37f
8:24 3 5 mph 987.9mb 46f 38f
8:18 2 3 mph 988mb 46f 37f
8:12 2 6 mph 988mb 46f 37f
8:06 5 6 mph 988mb 46f 38f
8:00 3
mph
988mb 46f 38f
7:54 2 6 mph 988.1mb 46f 38f
7:48 7 8 mph 988.1mb 46f 38f
7:36 6 7 mph 988.3mb 46f 38f
7:30 6 7 mph 988.4mb 46f 38f
7:24 5 6 mph 988.4mb 46f 38f
7:18 3 6 mph 988.5mb 46f 38f
7:12 5 6 mph 988.5mb 46f 38f
7:06 3 5 mph 988.6mb 46f 38f
7:00 3
mph
988.7mb 46f 39f
6:54 2 5 mph 988.7mb 46f 39f
6:48 3 7 mph 988.8mb 46f 39f
6:36 3 5 mph 989mb 46f 39f
6:30 2
mph
989mb 46f 39f
6:24 3 5 mph 989.1mb 46f 39f
6:18 3 6 mph 989.1mb 46f 39f
6:12 5 6 mph 989.2mb 46f 39f
6:06 6
mph
989.3mb 46f 39f
6:00 3 6 mph 989.4mb 46f 39f
5:54 3 5 mph 989.4mb 46f 39f
5:48 3 5 mph 989.5mb 46f 40f
5:36 3 5 mph 989.7mb 46f 40f
5:30 3
mph
989.8mb 46f 40f
5:24 3
mph
989.9mb 46f 40f
5:18 2 3 mph 990mb 46f 39f
5:12 1 3 mph 990.1mb 46f 39f
5:06 2 3 mph 990.2mb 46f 39f
5:00 1 2 mph 990.3mb 46f 40f
4:54 2 3 mph 990.4mb 46f 40f
4:48 2 3 mph 990.6mb 46f 40f
4:36 3
mph
990.8mb 46f 40f
4:30 2 3 mph 990.9mb 46f 40f
4:24 2 5 mph 991mb 46f 40f
4:18 2
mph
991.2mb 46f 40f
4:12 2
mph
991.3mb 46f 40f
4:06 2 3 mph 991.3mb 46f 40f
4:00 2 5 mph 991.4mb 46f 40f
3:54 3 5 mph 991.5mb 46f 40f
3:48 3 6 mph 991.6mb 46f 40f
3:36 5 6 mph 991.7mb 46f 40f
3:30 5 6 mph 991.9mb 46f 40f
3:24 2 3 mph 992mb 46f 40f
3:18 3
mph
992.1mb 46f 40f
3:12 3 5 mph 992.2mb 46f 40f
3:06 3 6 mph 992.2mb 46f 40f
3:00 5 6 mph 992.4mb 46f 40f
2:54 5 6 mph 992.6mb 46f 40f
2:48 5 6 mph 992.7mb 46f 40f
2:36 6 7 mph 993mb 46f 39f
2:30 6 8 mph 993mb 46f 40f
2:24 5 7 mph 993mb 46f 39f
2:18 6 7 mph 993.1mb 46f 39f
2:12 1 7 mph 993.1mb 46f 39f
2:06 6 8 mph 993.2mb 46f 39f
2:00 7 8 mph 993.3mb 46f 39f
1:54 7 8 mph 993.4mb 46f 39f
1:48 6 7 mph 993.5mb 46f 39f
1:36 6 8 mph 993.5mb 46f 39f
1:30 7 8 mph 993.6mb 46f 39f
1:24 6 7 mph 993.6mb 46f 39f
1:18 5 8 mph 993.7mb 46f 39f
1:12 6 7 mph 993.8mb 46f 39f
1:06 5 6 mph 993.8mb 46f 39f
1:00 5 6 mph 993.9mb 46f 39f
12:54 5 6 mph 994mb 46f 39f
12:48 5 7 mph 994.2mb 46f 39f
12:36 5 7 mph 994.4mb 46f 39f
12:30 5 6 mph 994.4mb 46f 39f
12:24 5
mph
994.5mb 46f 39f
12:18 3 6 mph 994.5mb 46f 39f
12:12 3 7 mph 994.6mb 46f 40f
12:06 5 7 mph 994.7mb 46f 40f
12:00 6 8 mph 994.7mb 46f 40f
jeu. 01/19 11:54 6 8 mph 994.7mb 46f 40f
11:48 6 7 mph 994.8mb 46f 40f
11:36 3 7 mph 995.1mb 46f 40f
11:30 6 7 mph 995.2mb 46f 40f
11:24 5 6 mph 995.2mb 46f 40f
11:18 3 6 mph 995.2mb 46f 41f
11:12 5 6 mph 995.4mb 46f 40f
11:06 3 6 mph 995.5mb 46f 40f
11:00 5 6 mph 995.4mb 46f 40f
10:54 2 5 mph 995.4mb 46f 40f
10:48 6 7 mph 995.5mb 46f 40f
10:36 5 6 mph 995.5mb 46f 40f
10:30 1 2 mph 995.5mb 46f 41f
10:24 2 3 mph 995.6mb 46f 40f
10:18 3 5 mph 995.8mb 46f 41f
10:12 2 5 mph 995.8mb 46f 41f
10:06 3 5 mph 995.9mb 46f 41f
10:00 3 5 mph 995.9mb 46f 41f
9:54 2 3 mph 996mb 46f 42f
9:48 5 7 mph 996.1mb 46f 42f
9:36 1 2 mph 996mb 46f 42f
9:30 2 5 mph 996.1mb 46f 42f
9:24 2 3 mph 996.1mb 46f 42f
9:18 3 5 mph 996.2mb 46f 42f
9:12 2 3 mph 996.2mb 46f 42f
9:06 3 6 mph 996.2mb 46f 42f
9:00 2 3 mph 996.2mb 46f 42f
8:54 2 3 mph 996.2mb 46f 43f
8:48 1 2 mph 996.3mb 46f 43f
8:36 2 3 mph 996.4mb 46f 43f
8:30 2 3 mph 996.4mb 46f 43f
8:24 3
mph
996.5mb 46f 43f
8:18  -  1 mph 996.4mb 46f 43f
8:12  -  1 mph 996.4mb 46f 43f
8:06  -  2 mph 996.4mb 46f 43f
8:00 1 2 mph 996.4mb 46f 43f
7:54 1 3 mph 996.4mb 46f 44f
7:48 2 5 mph 996.5mb 46f 43f
7:36 3
mph
996.5mb 46f 44f
7:30 2 3 mph 996.5mb 46f 44f
7:24 3
mph
996.5mb 46f 44f
7:18 3 5 mph 996.6mb 46f 44f
7:12 3 5 mph 996.5mb 46f 44f
7:06 1 2 mph 996.5mb 46f 44f
7:00  -  2 mph 996.5mb 46f 44f
6:54 2
mph
996.6mb 46f 44f
6:48  -  1 mph 996.6mb 46f 44f
6:36 3
mph
996.7mb 46f 44f
6:30 2
mph
996.6mb 46f 44f
6:24 2
mph
996.7mb 46f 44f
6:18 2
mph
996.7mb 46f 45f
6:12 2 3 mph 996.7mb 46f 45f
6:06 2 3 mph 996.7mb 46f 45f
6:00 1 2 mph 996.7mb 46f 45f
5:54 2 3 mph 996.7mb 46f 46f
5:48 1 2 mph 996.7mb 46f 46f
5:36 2
mph
996.5mb 46f 46f
5:30 2 3 mph 996.6mb 46f 46f
5:24 2 3 mph 996.6mb 46f 45f
5:18 2 3 mph 996.6mb 46f 46f
5:12 5 6 mph 996.5mb 46f 46f
5:06 3 6 mph 996.4mb 46f 46f
5:00 5 7 mph 996.4mb 46f 46f
4:54 6 8 mph 996.4mb 46f 46f
4:48 8 10 mph 996.3mb 46f 46f
4:36 2 5 mph 996.4mb 46f 46f
4:30 1 2 mph 996.4mb 46f 46f
4:24 1 2 mph 996.4mb 46f 46f
4:18 2
mph
996.4mb 46f 46f
4:12 2 3 mph 996.3mb 46f 46f
4:06  -  2 mph 996.3mb 46f 46f
4:00  -  2 mph 996.2mb 46f 46f
3:54 1
mph
996.3mb 46f 46f
3:48 1
mph
996.3mb 46f 46f
3:36  -  1 mph 996.2mb 46f 46f
3:30 1
mph
996.2mb 46f 46f
3:24 1 2 mph 996.2mb 46f 46f
3:18  -  2 mph 996.2mb 46f 46f
3:12 1 2 mph 996.3mb 46f 46f
3:06  -  1 mph 996.3mb 46f 46f
3:00  -  2 mph 996.4mb 46f 46f
2:54 2
mph
996.4mb 46f 46f
2:48 3 5 mph 996.4mb 46f 46f
2:36 3 6 mph 996.3mb 46f 46f
2:30 5 6 mph 996.3mb 46f 46f
2:24 6 7 mph 996.3mb 46f 46f
2:18 7
mph
996.3mb 46f 46f
2:12 6 7 mph 996.3mb 46f 46f
2:06 7 8 mph 996.4mb 46f 46f
2:00 5 7 mph 996.5mb 46f 46f
1:54 7 9 mph 996.5mb 46f 46f
1:48 8 9 mph 996.6mb 46f 46f
1:36 8 9 mph 996.6mb 46f 46f
1:30 7 8 mph 996.6mb 46f 46f
1:24 7 9 mph 996.6mb 46f 46f
1:18 8 9 mph 996.7mb 46f 46f
1:12 6 7 mph 996.7mb 46f 47f
1:06 6
mph
996.8mb 46f 47f
1:00 5 6 mph 996.7mb 46f 48f
12:54 6 7 mph 996.8mb 46f 47f
12:48 6 7 mph 996.9mb 46f 47f
12:36 5 6 mph 996.9mb 46f 46f
12:30 5 6 mph 997.1mb 46f 47f
12:24 2 3 mph 997.1mb 46f 47f
12:18 2 3 mph 997.2mb 46f 47f
12:12 3
mph
997.2mb 46f 46f
12:06 3 5 mph 997.2mb 46f 47f
12:00 1 2 mph 997.3mb 46f 46f
11:54 2 3 mph 997.4mb 46f 46f
11:48 2 3 mph 997.3mb 46f 47f
11:36  -  2 mph 997.5mb 46f 46f
11:30 2 5 mph 997.4mb 46f 46f
11:24 3 5 mph 997.4mb 46f 46f
11:18 3 5 mph 997.4mb 46f 46f
11:12 5
mph
997.4mb 46f 46f
11:06 5 6 mph 997.5mb 46f 45f
11:00 6
mph
997.4mb 46f 45f
10:54 2 3 mph 997.4mb 46f 45f